Hauptseite
METAR-TAF:

METAR-TAF

Flughäfen :

Flughafen Heringsdorf

Heringsdorf, Deutschland

Breite: 53-53N, Länge: 014-09E, Höhe: 28 m

Beobachtung

Neuester Wetterbericht von vor 2 Stunden und 52 Minuten, um 14:20 UTC
Wind 9 kt aus West/Südwest
Temperatur 2°C
Luftfeuchtigkeit 80%
Luftdruck 1021 hPa
Sichtweite 10 km oder mehr
Durchbrochene Bewölkung in der Höhe von 1400 ft

METAR: EDAH 301420Z 25009KT 9999 BKN014 02/M01 Q1021

Zeit: 18:12 (17:12 UTC)

Prognose

Neuester Wetterbericht von vor 3 Stunden und 12 Minuten, um 14:00 UTC
Gültige Prognose vom 30 um 15 UTC bis 30 um 24 UTC
Wind 9 kt aus West/Südwest
Sichtweite 10 km oder mehr
Durchbrochene Bewölkung in der Höhe von 1400 ft
Übergehend zu
vom 30 um 15 UTC bis 30 um 18 UTC
Durchbrochene Bewölkung in der Höhe von 2000 ft

TAF: EDAH 301400Z 3015/3024 24009KT 9999 BKN014 BECMG 3015/3018 BKN020

Wetterbeobachtungen und Prognosen von mehr als 4000 Flughäfen (METAR und TAF Bericht).

Die verfügbaren Stationen werden durch gelbe und rote Markierungen auf der Karte dargestellt.

Führen Sie die Maus auf sie, um den Namen der Station zu sehen.

Darauf klicken, um die Beobachtung von Wetterbeobachtungen und Prognosen zu sehen.

Um die Karte zu ändern : klicken Sie auf den grünen Tasten mit einem schwarzen Kreuz Zum Vergrößern, auf den grünen Button mit einem Gedankenstrich zu verkleinern, oder auf die grünen Pfeile für benachbarte Karten.


METAR-TAF: